createdAt,value
2018-02-25T00:01:57.560Z,7.90
2018-02-25T00:04:26.635Z,7.90
2018-02-25T00:06:55.662Z,7.90
2018-02-25T00:09:24.509Z,7.90
2018-02-25T00:11:53.308Z,7.80
2018-02-25T00:14:22.204Z,7.90
2018-02-25T00:16:51.266Z,7.80
2018-02-25T00:19:20.164Z,7.80
2018-02-25T00:21:49.261Z,7.70
2018-02-25T00:24:18.111Z,7.70
2018-02-25T00:26:47.726Z,7.60
2018-02-25T00:29:16.605Z,7.60
2018-02-25T00:31:45.545Z,7.50
2018-02-25T00:34:14.337Z,7.50
2018-02-25T00:36:43.393Z,7.40
2018-02-25T00:39:12.999Z,7.30
2018-02-25T00:41:42.029Z,7.30
2018-02-25T00:44:10.869Z,7.30
2018-02-25T00:46:39.776Z,7.30
2018-02-25T00:49:08.713Z,7.20
2018-02-25T00:51:37.488Z,7.20
2018-02-25T00:54:06.465Z,7.10
2018-02-25T00:56:35.364Z,7.00
2018-02-25T00:59:04.954Z,6.90
2018-02-25T01:01:33.857Z,6.90
2018-02-25T01:04:03.974Z,6.80
2018-02-25T01:06:32.833Z,6.80
2018-02-25T01:09:03.571Z,6.80
2018-02-25T01:11:32.549Z,6.80
2018-02-25T01:14:01.911Z,6.80
2018-02-25T01:16:30.729Z,6.80
2018-02-25T01:18:59.612Z,6.70
2018-02-25T01:21:29.371Z,6.40
2018-02-25T01:23:58.216Z,6.40
2018-02-25T01:26:27.097Z,6.30
2018-02-25T01:28:56.772Z,6.20
2018-02-25T01:31:25.896Z,6.20
2018-02-25T01:33:54.750Z,6.10
2018-02-25T01:36:24.046Z,6.10
2018-02-25T01:38:52.911Z,6.10
2018-02-25T01:41:22.211Z,6.00
2018-02-25T01:43:51.343Z,6.00
2018-02-25T01:46:21.000Z,5.90
2018-02-25T01:48:49.828Z,5.90
2018-02-25T01:51:18.707Z,5.90
2018-02-25T01:53:48.493Z,5.90
2018-02-25T01:56:18.142Z,5.90
2018-02-25T01:58:48.207Z,5.80
2018-02-25T02:01:17.052Z,5.80
2018-02-25T02:03:46.011Z,5.80
2018-02-25T02:06:14.869Z,5.70
2018-02-25T02:08:43.711Z,5.80
2018-02-25T02:11:12.524Z,5.80
2018-02-25T02:13:41.487Z,5.80
2018-02-25T02:16:10.245Z,5.80
2018-02-25T02:18:39.156Z,5.80
2018-02-25T02:21:07.916Z,5.80
2018-02-25T02:23:37.605Z,5.90
2018-02-25T02:26:06.513Z,5.90
2018-02-25T02:28:35.376Z,6.00
2018-02-25T02:31:04.407Z,6.00
2018-02-25T02:33:33.562Z,6.00
2018-02-25T02:36:02.380Z,6.10
2018-02-25T02:38:31.275Z,6.10
2018-02-25T02:41:00.419Z,6.10
2018-02-25T02:43:29.408Z,6.20
2018-02-25T02:45:58.170Z,6.10
2018-02-25T02:48:28.174Z,6.10
2018-02-25T02:50:57.233Z,6.10
2018-02-25T02:53:26.337Z,6.20
2018-02-25T02:55:55.402Z,6.20
2018-02-25T02:58:24.394Z,6.10
2018-02-25T03:00:53.208Z,6.20
2018-02-25T03:03:22.774Z,6.20
2018-02-25T03:05:52.381Z,6.20
2018-02-25T03:08:21.145Z,6.20
2018-02-25T03:10:50.233Z,6.20
2018-02-25T03:13:19.086Z,6.20
2018-02-25T03:15:47.998Z,6.10
2018-02-25T03:18:16.817Z,6.10
2018-02-25T03:20:45.677Z,6.10
2018-02-25T03:23:14.545Z,6.10
2018-02-25T03:25:44.363Z,6.10
2018-02-25T03:28:13.921Z,6.10
2018-02-25T03:30:42.771Z,6.10
2018-02-25T03:33:11.527Z,6.10
2018-02-25T03:35:41.359Z,6.00
2018-02-25T03:38:11.023Z,6.00
2018-02-25T03:40:40.249Z,5.90
2018-02-25T03:43:09.049Z,5.90
2018-02-25T03:45:37.949Z,5.90
2018-02-25T03:48:06.968Z,5.80
2018-02-25T03:50:35.855Z,5.80
2018-02-25T03:53:04.878Z,5.80
2018-02-25T03:55:34.542Z,5.80
2018-02-25T03:58:03.362Z,5.80
2018-02-25T04:00:32.165Z,5.80
2018-02-25T04:03:01.825Z,5.70
2018-02-25T04:05:30.860Z,5.70
2018-02-25T04:08:00.014Z,5.70
2018-02-25T04:10:29.541Z,5.70
2018-02-25T04:12:58.421Z,5.70
2018-02-25T04:15:27.531Z,5.70
2018-02-25T04:17:57.238Z,5.60
2018-02-25T04:20:26.138Z,5.60
2018-02-25T04:22:55.098Z,5.60
2018-02-25T04:25:24.625Z,5.60
2018-02-25T04:27:53.450Z,5.60
2018-02-25T04:30:22.220Z,5.50
2018-02-25T04:32:51.110Z,5.50
2018-02-25T04:35:20.185Z,5.50
2018-02-25T04:37:48.998Z,5.40
2018-02-25T04:40:18.736Z,5.50
2018-02-25T04:42:47.629Z,5.40
2018-02-25T04:45:16.777Z,5.50
2018-02-25T04:47:45.624Z,5.50
2018-02-25T04:50:14.710Z,5.50
2018-02-25T04:52:43.548Z,5.50
2018-02-25T04:55:13.225Z,5.60
2018-02-25T04:57:43.250Z,5.60
2018-02-25T05:00:12.390Z,5.60
2018-02-25T05:02:42.049Z,5.50
2018-02-25T05:05:11.055Z,5.50
2018-02-25T05:07:40.861Z,5.50
2018-02-25T05:10:10.476Z,5.50
2018-02-25T05:12:39.355Z,5.50
2018-02-25T05:15:08.946Z,5.40
2018-02-25T05:17:38.826Z,5.40
2018-02-25T05:20:08.473Z,5.40
2018-02-25T05:22:37.495Z,5.40
2018-02-25T05:25:07.350Z,5.50
2018-02-25T05:27:36.198Z,5.50
2018-02-25T05:30:05.277Z,5.50
2018-02-25T05:32:34.246Z,5.50
2018-02-25T05:35:03.252Z,5.70
2018-02-25T05:37:32.822Z,5.80
2018-02-25T05:40:01.839Z,5.70
2018-02-25T05:42:31.494Z,5.70
2018-02-25T05:45:00.391Z,5.70
2018-02-25T05:47:29.460Z,5.70
2018-02-25T05:49:58.747Z,5.70
2018-02-25T05:52:28.446Z,5.90
2018-02-25T05:54:57.292Z,5.80
2018-02-25T05:57:26.184Z,5.90
2018-02-25T05:59:55.024Z,6.00
2018-02-25T06:02:24.021Z,6.00
2018-02-25T06:04:53.616Z,6.00
2018-02-25T06:07:22.733Z,6.00
2018-02-25T06:09:52.573Z,5.90
2018-02-25T06:12:22.639Z,5.90
2018-02-25T06:14:51.493Z,5.90
2018-02-25T06:17:21.183Z,6.00
2018-02-25T06:19:50.875Z,6.10
2018-02-25T06:22:19.793Z,6.10
2018-02-25T06:24:48.841Z,6.10
2018-02-25T06:27:17.817Z,6.10
2018-02-25T06:29:46.775Z,6.10
2018-02-25T06:32:16.505Z,6.30
2018-02-25T06:34:46.247Z,6.40
2018-02-25T06:37:15.385Z,6.40
2018-02-25T06:39:44.232Z,6.50
2018-02-25T06:42:13.141Z,6.50
2018-02-25T06:44:42.753Z,6.60
2018-02-25T06:47:11.638Z,6.70
2018-02-25T06:49:40.813Z,6.90
2018-02-25T06:52:10.506Z,7.00
2018-02-25T06:54:40.457Z,7.10
2018-02-25T06:57:10.270Z,7.00
2018-02-25T06:59:39.888Z,7.00
2018-02-25T07:02:08.764Z,7.00
2018-02-25T07:04:38.444Z,7.00
2018-02-25T07:07:07.302Z,7.00
2018-02-25T07:09:36.126Z,7.10
2018-02-25T07:12:06.032Z,7.10
2018-02-25T07:14:36.048Z,7.20
2018-02-25T07:17:05.672Z,7.20
2018-02-25T07:19:35.435Z,7.20
2018-02-25T07:22:04.473Z,7.20
2018-02-25T07:24:33.596Z,7.20
2018-02-25T07:27:03.448Z,7.50
2018-02-25T07:29:32.387Z,7.40
2018-02-25T07:32:01.935Z,7.50
2018-02-25T07:34:30.832Z,7.60
2018-02-25T07:36:59.713Z,7.70
2018-02-25T07:39:28.726Z,7.80
2018-02-25T07:41:57.611Z,7.80
2018-02-25T07:44:26.463Z,7.90
2018-02-25T07:46:56.072Z,7.90
2018-02-25T07:49:25.081Z,7.90
2018-02-25T07:51:53.936Z,7.90
2018-02-25T07:54:24.227Z,8.10
2018-02-25T07:56:53.987Z,8.10
2018-02-25T07:59:23.604Z,8.10
2018-02-25T08:01:52.933Z,8.10
2018-02-25T08:04:21.797Z,8.20
2018-02-25T08:06:50.692Z,8.20
2018-02-25T08:09:19.772Z,8.10
2018-02-25T08:11:49.436Z,8.40
2018-02-25T08:14:18.778Z,8.40
2018-02-25T08:16:47.792Z,8.50
2018-02-25T08:19:16.678Z,8.60
2018-02-25T08:21:45.596Z,8.50
2018-02-25T08:24:14.448Z,8.30
2018-02-25T08:26:43.541Z,8.40
2018-02-25T08:29:12.541Z,8.50
2018-02-25T08:31:41.496Z,8.50
2018-02-25T08:34:10.735Z,8.50
2018-02-25T08:36:39.875Z,8.50
2018-02-25T08:39:08.808Z,8.50
2018-02-25T08:41:38.374Z,8.40
2018-02-25T08:44:08.451Z,8.40
2018-02-25T08:46:37.414Z,8.40
2018-02-25T08:49:07.340Z,8.50
2018-02-25T08:51:36.906Z,8.60
2018-02-25T08:54:05.708Z,8.60
2018-02-25T08:56:34.617Z,8.70
2018-02-25T08:59:03.624Z,8.80
2018-02-25T09:01:33.266Z,9.20
2018-02-25T09:04:02.109Z,9.20
2018-02-25T09:06:31.841Z,9.60
2018-02-25T09:09:00.732Z,9.60
2018-02-25T09:11:29.736Z,9.60
2018-02-25T09:13:59.356Z,9.70
2018-02-25T09:16:28.425Z,9.70
2018-02-25T09:18:57.257Z,9.60
2018-02-25T09:21:26.144Z,9.60
2018-02-25T09:23:55.033Z,9.50
2018-02-25T09:26:24.220Z,9.50
2018-02-25T09:28:53.177Z,9.30
2018-02-25T09:31:23.001Z,9.30
2018-02-25T09:33:51.766Z,9.20
2018-02-25T09:36:20.729Z,9.10
2018-02-25T09:38:49.643Z,9.10
2018-02-25T09:41:19.810Z,9.00
2018-02-25T09:43:49.144Z,9.00
2018-02-25T09:46:18.181Z,9.00
2018-02-25T09:48:47.793Z,9.00
2018-02-25T09:51:16.901Z,9.00
2018-02-25T09:53:45.851Z,9.00
2018-02-25T09:56:15.016Z,8.90
2018-02-25T09:58:43.901Z,8.90
2018-02-25T10:01:12.838Z,8.80
2018-02-25T10:03:42.389Z,8.80
2018-02-25T10:06:12.107Z,8.90
2018-02-25T10:08:41.029Z,8.90
2018-02-25T10:11:10.007Z,9.00
2018-02-25T10:13:39.668Z,9.10
2018-02-25T10:16:09.068Z,9.10
2018-02-25T10:18:37.900Z,9.10
2018-02-25T10:21:06.766Z,9.00
2018-02-25T10:23:35.841Z,9.00
2018-02-25T10:26:05.452Z,9.10
2018-02-25T10:28:34.361Z,9.00
2018-02-25T10:31:03.426Z,9.10
2018-02-25T10:33:32.321Z,9.10
2018-02-25T10:36:01.415Z,9.20
2018-02-25T10:38:31.039Z,9.20
2018-02-25T10:41:00.865Z,9.20
2018-02-25T10:43:30.674Z,9.20
2018-02-25T10:45:59.487Z,9.10
2018-02-25T10:48:28.548Z,9.30
2018-02-25T10:50:57.664Z,9.40
2018-02-25T10:53:26.690Z,9.40
2018-02-25T10:55:55.633Z,9.50
2018-02-25T10:58:24.495Z,9.50
2018-02-25T11:01:00.939Z,9.80
2018-02-25T11:03:29.874Z,9.80
2018-02-25T11:05:58.792Z,9.80
2018-02-25T11:08:27.683Z,10.00
2018-02-25T11:10:56.854Z,10.20
2018-02-25T11:13:25.721Z,10.40
2018-02-25T11:15:54.602Z,10.50
2018-02-25T11:18:23.472Z,10.70
2018-02-25T11:20:52.358Z,10.90
2018-02-25T11:23:22.028Z,11.60
2018-02-25T11:25:51.200Z,11.60
2018-02-25T11:28:21.912Z,11.80
2018-02-25T11:30:50.780Z,12.00
2018-02-25T11:33:19.957Z,12.30
2018-02-25T11:35:49.169Z,12.50
2018-02-25T11:38:18.107Z,12.40
2018-02-25T11:40:47.028Z,12.30
2018-02-25T11:43:15.945Z,12.40
2018-02-25T11:45:44.830Z,12.30
2018-02-25T11:48:14.449Z,11.80
2018-02-25T11:50:43.288Z,11.80
2018-02-25T11:53:13.154Z,11.40
2018-02-25T11:55:42.206Z,11.40
2018-02-25T11:58:12.025Z,11.40
2018-02-25T12:00:41.041Z,11.40
2018-02-25T12:03:09.905Z,11.40
2018-02-25T12:05:39.039Z,11.30
2018-02-25T12:08:07.974Z,11.30
2018-02-25T12:10:37.604Z,11.30
2018-02-25T12:13:06.746Z,11.20
2018-02-25T12:15:35.593Z,11.30
2018-02-25T12:18:04.489Z,11.30
2018-02-25T12:20:34.191Z,11.10
2018-02-25T12:23:03.117Z,11.10
2018-02-25T12:25:32.202Z,11.00
2018-02-25T12:28:01.913Z,11.10
2018-02-25T12:30:31.784Z,10.80
2018-02-25T12:33:00.656Z,10.80
2018-02-25T12:35:29.516Z,10.70
2018-02-25T12:37:59.581Z,10.60
2018-02-25T12:40:29.241Z,10.50
2018-02-25T12:42:58.493Z,10.50
2018-02-25T12:45:28.433Z,10.30
2018-02-25T13:00:58.213Z,9.80
2018-02-25T13:03:27.843Z,9.70
2018-02-25T13:05:57.096Z,9.70
2018-02-25T13:08:27.030Z,9.60
2018-02-25T13:10:55.922Z,9.60
2018-02-25T13:13:25.843Z,9.60
2018-02-25T13:15:54.708Z,9.60
2018-02-25T13:18:24.022Z,9.60
2018-02-25T13:20:53.218Z,9.60
2018-02-25T13:23:23.062Z,9.40
2018-02-25T13:25:51.881Z,9.40
2018-02-25T13:28:21.731Z,9.40
2018-02-25T13:30:50.653Z,9.40
2018-02-25T13:33:19.562Z,9.60
2018-02-25T13:35:48.337Z,9.80
2018-02-25T13:38:17.226Z,10.00
2018-02-25T13:40:46.245Z,10.20
2018-02-25T13:43:15.408Z,10.20
2018-02-25T13:45:45.001Z,9.80
2018-02-25T13:48:14.757Z,9.80
2018-02-25T13:50:44.593Z,9.70
2018-02-25T13:53:13.455Z,9.60
2018-02-25T13:55:42.419Z,9.60
2018-02-25T13:58:12.055Z,9.60
2018-02-25T14:00:40.949Z,9.60
2018-02-25T14:03:10.965Z,9.50
2018-02-25T14:05:39.749Z,9.40
2018-02-25T14:08:09.406Z,9.40
2018-02-25T14:10:39.040Z,9.30
2018-02-25T14:13:07.933Z,9.40
2018-02-25T14:15:37.701Z,9.30
2018-02-25T14:18:07.439Z,9.30
2018-02-25T14:20:37.111Z,9.30
2018-02-25T14:23:07.205Z,9.40
2018-02-25T14:25:36.267Z,9.40
2018-02-25T14:28:05.924Z,9.40
2018-02-25T14:30:35.152Z,9.30
2018-02-25T14:33:04.130Z,9.40
2018-02-25T14:35:33.003Z,9.30
2018-02-25T14:38:01.840Z,9.30
2018-02-25T14:40:30.890Z,9.30
2018-02-25T14:42:59.745Z,9.30
2018-02-25T14:45:28.616Z,9.30
2018-02-25T14:47:57.552Z,9.20
2018-02-25T14:50:26.783Z,9.20
2018-02-25T14:52:55.678Z,9.20
2018-02-25T14:55:24.594Z,9.10
2018-02-25T14:57:54.241Z,9.10
2018-02-25T15:00:23.053Z,9.00
2018-02-25T15:02:51.957Z,9.10
2018-02-25T15:05:20.778Z,9.00
2018-02-25T15:07:49.660Z,9.00
2018-02-25T15:10:19.369Z,9.00
2018-02-25T15:12:49.469Z,9.00
2018-02-25T15:15:19.044Z,9.00
2018-02-25T15:17:48.688Z,8.90
2018-02-25T15:20:17.586Z,8.90
2018-02-25T15:22:46.605Z,8.90
2018-02-25T15:25:16.388Z,8.90
2018-02-25T15:27:46.085Z,8.90
2018-02-25T15:30:15.931Z,8.90
2018-02-25T15:32:44.817Z,8.90
2018-02-25T15:35:14.499Z,8.90
2018-02-25T15:37:43.389Z,8.90
2018-02-25T15:40:12.274Z,8.90
2018-02-25T15:42:41.418Z,8.80
2018-02-25T15:45:10.248Z,8.80
2018-02-25T15:47:39.935Z,8.70
2018-02-25T15:50:09.624Z,8.70
2018-02-25T15:52:38.803Z,8.70
2018-02-25T15:55:07.979Z,8.70
2018-02-25T15:57:36.778Z,8.60
2018-02-25T16:00:06.418Z,8.60
2018-02-25T16:02:35.245Z,8.60
2018-02-25T16:05:04.942Z,8.60
2018-02-25T16:07:33.838Z,8.60
2018-02-25T16:10:02.713Z,8.60
2018-02-25T16:12:31.560Z,8.60
2018-02-25T16:15:01.186Z,8.50
2018-02-25T16:17:30.377Z,8.50
2018-02-25T16:20:00.215Z,8.50
2018-02-25T16:22:29.067Z,8.50
2018-02-25T16:24:59.165Z,8.50
2018-02-25T16:27:28.329Z,8.50
2018-02-25T16:29:57.180Z,8.40
2018-02-25T16:32:26.805Z,8.40
2018-02-25T16:34:55.709Z,8.40
2018-02-25T16:37:24.775Z,8.40
2018-02-25T16:39:54.439Z,8.50
2018-02-25T16:42:24.129Z,8.50
2018-02-25T16:44:52.900Z,8.50
2018-02-25T16:47:21.770Z,8.50
2018-02-25T16:49:50.794Z,8.40
2018-02-25T16:52:19.751Z,8.40
2018-02-25T16:54:48.835Z,8.50
2018-02-25T16:57:18.698Z,8.50
2018-02-25T16:59:47.584Z,8.50
2018-02-25T17:02:16.668Z,8.40
2018-02-25T17:04:45.544Z,8.40
2018-02-25T17:07:14.443Z,8.50
2018-02-25T17:09:43.663Z,8.40
2018-02-25T17:12:13.316Z,8.40
2018-02-25T17:14:42.468Z,8.40
2018-02-25T17:17:11.714Z,8.40
2018-02-25T17:19:40.631Z,8.30
2018-02-25T17:22:09.572Z,8.30
2018-02-25T17:27:13.605Z,8.20
2018-02-25T17:29:42.658Z,8.20
2018-02-25T17:32:11.929Z,8.20
2018-02-25T17:34:41.827Z,8.20
2018-02-25T17:37:10.928Z,8.20
2018-02-25T17:39:40.100Z,8.10
2018-02-25T17:42:10.292Z,8.10
2018-02-25T17:44:39.822Z,8.10
2018-02-25T17:47:09.835Z,8.00
2018-02-25T17:49:38.958Z,8.00
2018-02-25T17:52:08.301Z,8.10
2018-02-25T17:54:37.359Z,8.10
2018-02-25T17:57:07.318Z,8.00
2018-02-25T17:59:36.149Z,8.00
2018-02-25T18:02:05.096Z,8.00
2018-02-25T18:04:33.976Z,7.90
2018-02-25T18:07:02.875Z,7.90
2018-02-25T18:09:32.502Z,7.80
2018-02-25T18:12:01.399Z,8.50
2018-02-25T18:14:30.451Z,7.80
2018-02-25T18:16:59.957Z,7.70
2018-02-25T18:19:28.912Z,7.70
2018-02-25T18:21:57.836Z,7.70
2018-02-25T18:24:26.704Z,7.60
2018-02-25T18:26:55.619Z,7.60
2018-02-25T18:29:24.659Z,7.60
2018-02-25T18:31:53.458Z,7.50
2018-02-25T18:34:22.379Z,7.50
2018-02-25T18:36:52.208Z,7.50
2018-02-25T18:39:21.386Z,7.50
2018-02-25T18:41:50.449Z,7.50
2018-02-25T18:44:20.057Z,7.50
2018-02-25T18:46:49.260Z,7.50
2018-02-25T18:49:19.401Z,7.50
2018-02-25T18:51:48.676Z,7.40
2018-02-25T18:54:18.224Z,7.50
2018-02-25T18:56:47.591Z,7.40
2018-02-25T18:59:16.912Z,7.40
2018-02-25T19:01:45.957Z,7.40
2018-02-25T19:04:14.912Z,7.40
2018-02-25T19:06:48.401Z,7.30
2018-02-25T19:09:19.346Z,7.30
2018-02-25T19:11:49.275Z,7.30
2018-02-25T19:14:18.935Z,7.30
2018-02-25T19:16:47.840Z,7.30
2018-02-25T19:19:16.879Z,7.30
2018-02-25T19:21:45.978Z,7.30
2018-02-25T19:24:15.171Z,7.30
2018-02-25T19:26:44.316Z,7.20
2018-02-25T19:29:13.984Z,7.20
2018-02-25T19:31:43.073Z,7.20
2018-02-25T19:34:12.681Z,7.20
2018-02-25T19:36:58.472Z,7.20
2018-02-25T19:39:33.143Z,7.10
2018-02-25T19:42:02.714Z,7.10
2018-02-25T19:44:32.083Z,7.00
2018-02-25T19:47:02.101Z,7.00
2018-02-25T19:49:31.453Z,6.90
2018-02-25T19:52:00.924Z,7.00
2018-02-25T19:54:30.480Z,7.00
2018-02-25T19:57:00.051Z,6.90
2018-02-25T19:59:29.821Z,6.90
2018-02-25T20:01:59.159Z,6.90
2018-02-25T20:04:29.393Z,6.80
2018-02-25T20:06:58.797Z,6.80
2018-02-25T20:09:28.260Z,6.80
2018-02-25T20:11:57.527Z,6.80
2018-02-25T20:14:26.641Z,6.80
2018-02-25T20:16:55.630Z,6.80
2018-02-25T20:19:24.811Z,6.70
2018-02-25T20:21:53.846Z,6.70
2018-02-25T20:24:22.609Z,6.70
2018-02-25T20:26:51.531Z,6.70
2018-02-25T20:29:21.122Z,6.60
2018-02-25T20:31:50.216Z,6.60
2018-02-25T20:34:18.952Z,6.60
2018-02-25T20:36:47.864Z,6.60
2018-02-25T20:39:17.491Z,6.50
2018-02-25T20:41:46.292Z,6.50
2018-02-25T20:44:15.336Z,6.50
2018-02-25T20:46:44.161Z,6.50
2018-02-25T20:49:13.163Z,6.50
2018-02-25T20:51:43.406Z,6.40
2018-02-25T20:54:12.719Z,6.40
2018-02-25T20:56:41.707Z,6.40
2018-02-25T20:59:10.682Z,6.40
2018-02-25T21:01:40.466Z,6.40
2018-02-25T21:04:09.299Z,6.40
2018-02-25T21:06:38.514Z,6.30
2018-02-25T21:09:07.402Z,6.30
2018-02-25T21:11:36.217Z,6.30
2018-02-25T21:14:05.049Z,6.30
2018-02-25T21:16:34.620Z,6.30
2018-02-25T21:19:03.446Z,6.20
2018-02-25T21:21:32.162Z,6.30
2018-02-25T21:24:01.291Z,6.20
2018-02-25T21:26:30.183Z,6.20
2018-02-25T21:28:58.970Z,6.20
2018-02-25T21:31:28.035Z,6.20
2018-02-25T21:33:58.105Z,6.10
2018-02-25T21:36:26.983Z,6.10
2018-02-25T21:38:55.838Z,6.10
2018-02-25T21:41:24.991Z,6.10
2018-02-25T21:43:54.420Z,6.10
2018-02-25T21:46:23.956Z,6.00
2018-02-25T21:48:53.029Z,6.00
2018-02-25T21:51:21.993Z,6.00
2018-02-25T21:53:50.802Z,6.00
2018-02-25T21:56:25.424Z,6.00
2018-02-25T21:58:59.823Z,6.00
2018-02-25T22:01:34.278Z,5.90
2018-02-25T22:04:03.110Z,5.90
2018-02-25T22:06:31.855Z,5.90
2018-02-25T22:09:00.703Z,5.90
2018-02-25T22:11:29.531Z,5.90
2018-02-25T22:13:58.413Z,5.90
2018-02-25T22:16:27.910Z,5.90
2018-02-25T22:18:57.792Z,5.90
2018-02-25T22:21:26.636Z,5.90
2018-02-25T22:23:55.488Z,5.90
2018-02-25T22:26:25.301Z,5.80
2018-02-25T22:28:54.286Z,5.80
2018-02-25T22:31:23.566Z,5.80
2018-02-25T22:33:52.589Z,5.80
2018-02-25T22:36:21.370Z,5.80
2018-02-25T22:38:50.177Z,5.80
2018-02-25T22:41:19.027Z,5.80
2018-02-25T22:43:48.660Z,5.80
2018-02-25T22:46:18.677Z,5.80
2018-02-25T22:48:48.374Z,5.70
2018-02-25T22:51:18.013Z,5.70
2018-02-25T22:53:54.296Z,5.70
2018-02-25T22:56:23.665Z,5.70
2018-02-25T22:58:53.426Z,5.70
2018-02-25T23:01:22.411Z,5.70
2018-02-25T23:03:51.261Z,5.70
2018-02-25T23:06:21.109Z,5.60
2018-02-25T23:08:50.791Z,5.60
2018-02-25T23:11:20.432Z,5.60
2018-02-25T23:13:49.198Z,5.60
2018-02-25T23:16:18.164Z,5.60
2018-02-25T23:18:47.101Z,5.60
2018-02-25T23:21:16.044Z,5.60
2018-02-25T23:23:44.988Z,5.60
2018-02-25T23:26:13.813Z,5.50
2018-02-25T23:28:42.793Z,5.50
2018-02-25T23:31:11.836Z,5.40
2018-02-25T23:33:41.637Z,5.40
2018-02-25T23:36:10.648Z,5.30
2018-02-25T23:38:39.617Z,5.30
2018-02-25T23:41:08.640Z,5.30
2018-02-25T23:43:37.825Z,5.30
2018-02-25T23:46:06.770Z,5.30
2018-02-25T23:48:36.333Z,5.30
2018-02-25T23:51:05.192Z,5.20
2018-02-25T23:53:34.130Z,5.20
2018-02-25T23:56:03.018Z,5.20
2018-02-25T23:58:32.901Z,5.20
